createdAt,value
2019-04-05T00:01:08.961Z,13.05
2019-04-05T00:03:39.814Z,13.28
2019-04-05T00:06:10.609Z,12.35
2019-04-05T00:08:41.348Z,12.50
2019-04-05T00:11:12.288Z,12.33
2019-04-05T00:13:43.218Z,12.82
2019-04-05T00:16:13.665Z,13.10
2019-04-05T00:18:46.273Z,13.18
2019-04-05T00:21:16.839Z,12.68
2019-04-05T00:23:47.664Z,12.90
2019-04-05T00:26:18.223Z,12.50
2019-04-05T00:28:51.665Z,12.63
2019-04-05T00:31:21.400Z,12.95
2019-04-05T00:33:51.879Z,12.47
2019-04-05T00:36:22.482Z,12.73
2019-04-05T00:38:53.642Z,12.85
2019-04-05T00:41:24.164Z,13.27
2019-04-05T00:43:54.687Z,13.28
2019-04-05T00:46:25.293Z,12.85
2019-04-05T00:48:55.841Z,13.20
2019-04-05T00:51:26.803Z,13.32
2019-04-05T00:53:57.410Z,13.05
2019-04-05T00:56:28.019Z,13.30
2019-04-05T00:58:58.690Z,13.03
2019-04-05T01:01:29.568Z,12.53
2019-04-05T01:04:00.164Z,13.35
2019-04-05T01:06:31.057Z,13.40
2019-04-05T01:09:01.883Z,13.43
2019-04-05T01:11:33.297Z,13.18
2019-04-05T01:14:04.089Z,13.75
2019-04-05T01:16:36.016Z,13.78
2019-04-05T01:19:07.273Z,14.07
2019-04-05T01:21:42.768Z,13.83
2019-04-05T01:24:14.401Z,13.72
2019-04-05T01:26:46.277Z,13.57
2019-04-05T01:29:17.078Z,14.83
2019-04-05T01:31:47.741Z,14.25
2019-04-05T01:34:18.380Z,14.07
2019-04-05T01:36:50.792Z,14.98
2019-04-05T01:39:21.401Z,15.03
2019-04-05T01:41:52.160Z,14.60
2019-04-05T01:44:23.041Z,14.33
2019-04-05T01:46:53.895Z,13.50
2019-04-05T01:49:24.964Z,13.98
2019-04-05T01:51:55.694Z,14.00
2019-04-05T01:54:29.041Z,14.15
2019-04-05T01:56:58.605Z,14.28
2019-04-05T01:59:29.396Z,14.90
2019-04-05T02:02:00.110Z,14.50
2019-04-05T02:04:30.663Z,14.45
2019-04-05T02:07:01.995Z,14.05
2019-04-05T02:09:32.959Z,14.87
2019-04-05T02:12:03.745Z,14.53
2019-04-05T02:14:34.374Z,14.43
2019-04-05T02:17:05.204Z,13.72
2019-04-05T02:19:35.787Z,14.50
2019-04-05T02:22:06.537Z,15.33
2019-04-05T02:24:37.014Z,15.37
2019-04-05T02:27:07.743Z,14.90
2019-04-05T02:29:38.353Z,15.77
2019-04-05T02:32:09.099Z,14.43
2019-04-05T02:34:40.163Z,15.53
2019-04-05T02:37:12.070Z,15.20
2019-04-05T02:39:42.822Z,16.27
2019-04-05T02:42:13.558Z,15.85
2019-04-05T02:44:46.655Z,15.03
2019-04-05T02:47:18.739Z,16.67
2019-04-05T02:49:50.151Z,15.73
2019-04-05T02:52:22.555Z,16.83
2019-04-05T02:54:54.147Z,16.17
2019-04-05T02:57:26.452Z,15.93
2019-04-05T02:59:57.552Z,15.43
2019-04-05T03:02:29.031Z,15.30
2019-04-05T03:05:00.677Z,15.80
2019-04-05T03:07:31.421Z,16.02
2019-04-05T03:10:03.141Z,16.07
2019-04-05T03:12:35.994Z,16.80
2019-04-05T03:15:07.927Z,16.30
2019-04-05T03:17:38.674Z,16.17
2019-04-05T03:20:09.804Z,16.77
2019-04-05T03:22:40.495Z,16.33
2019-04-05T03:25:11.315Z,17.17
2019-04-05T03:27:42.019Z,15.93
2019-04-05T03:30:12.712Z,16.37
2019-04-05T03:32:43.515Z,17.40
2019-04-05T03:35:14.537Z,16.27
2019-04-05T03:37:46.194Z,17.10
2019-04-05T03:40:16.833Z,16.80
2019-04-05T03:42:47.570Z,17.10
2019-04-05T03:45:18.496Z,16.93
2019-04-05T03:47:49.178Z,17.50
2019-04-05T03:50:19.882Z,18.23
2019-04-05T03:52:50.553Z,17.87
2019-04-05T03:55:22.043Z,17.33
2019-04-05T03:57:55.487Z,18.07
2019-04-05T04:00:27.052Z,17.70
2019-04-05T04:02:57.708Z,17.37
2019-04-05T04:05:28.924Z,17.80
2019-04-05T04:07:59.802Z,18.10
2019-04-05T04:10:30.805Z,18.40
2019-04-05T04:13:01.714Z,17.77
2019-04-05T04:15:33.493Z,18.03
2019-04-05T04:18:05.123Z,18.53
2019-04-05T04:20:40.509Z,17.50
2019-04-05T04:23:12.433Z,18.00
2019-04-05T04:25:43.964Z,18.47
2019-04-05T04:28:14.876Z,18.07
2019-04-05T04:30:46.501Z,18.63
2019-04-05T04:33:32.520Z,18.47
2019-04-05T04:36:04.799Z,19.17
2019-04-05T04:38:37.990Z,18.20
2019-04-05T04:41:13.281Z,18.57
2019-04-05T04:43:44.700Z,18.10
2019-04-05T04:46:15.353Z,18.63
2019-04-05T04:48:47.561Z,18.40
2019-04-05T04:51:19.503Z,18.13
2019-04-05T04:53:50.543Z,18.30
2019-04-05T04:56:21.225Z,18.73
2019-04-05T04:58:51.856Z,18.40
2019-04-05T05:01:22.537Z,17.90
2019-04-05T05:03:53.795Z,18.20
2019-04-05T05:06:24.759Z,18.97
2019-04-05T05:08:55.667Z,18.93
2019-04-05T05:11:26.101Z,18.27
2019-04-05T05:13:56.803Z,18.80
2019-04-05T05:16:27.483Z,18.20
2019-04-05T05:18:59.088Z,19.13
2019-04-05T05:21:30.353Z,18.67
2019-04-05T05:24:02.641Z,17.23
2019-04-05T05:26:33.393Z,18.73
2019-04-05T05:29:04.010Z,18.17
2019-04-05T05:31:34.771Z,19.83
2019-04-05T05:34:11.547Z,19.13
2019-04-05T05:36:42.195Z,18.80
2019-04-05T05:39:12.662Z,18.23
2019-04-05T05:41:43.283Z,17.83
2019-04-05T05:44:14.067Z,18.23
2019-04-05T05:46:44.877Z,18.33
2019-04-05T05:49:15.506Z,17.87
2019-04-05T05:51:47.940Z,19.13
2019-04-05T05:54:18.564Z,18.70
2019-04-05T05:56:49.136Z,18.30
2019-04-05T05:59:19.729Z,18.57
2019-04-05T06:01:50.335Z,18.07
2019-04-05T06:04:21.038Z,18.20
2019-04-05T06:06:51.728Z,17.57
2019-04-05T06:09:22.408Z,17.80
2019-04-05T06:11:53.119Z,18.98
2019-04-05T06:14:23.721Z,18.30
2019-04-05T06:16:56.395Z,19.32
2019-04-05T06:19:27.179Z,19.70
2019-04-05T06:21:57.769Z,17.93
2019-04-05T06:24:29.562Z,18.50
2019-04-05T06:27:00.475Z,18.70
2019-04-05T06:29:31.882Z,18.55
2019-04-05T06:32:04.223Z,18.07
2019-04-05T06:34:34.974Z,17.70
2019-04-05T06:37:06.542Z,21.33
2019-04-05T06:39:37.164Z,20.32
2019-04-05T06:42:07.702Z,20.90
2019-04-05T06:44:38.346Z,19.65
2019-04-05T06:47:09.391Z,20.72
2019-04-05T06:49:39.980Z,24.10
2019-04-05T06:52:10.598Z,21.68
2019-04-05T06:54:41.417Z,19.52
2019-04-05T06:57:12.384Z,21.55
2019-04-05T06:59:42.956Z,18.23
2019-04-05T07:02:13.703Z,19.57
2019-04-05T07:04:44.129Z,19.02
2019-04-05T07:07:17.652Z,19.87
2019-04-05T07:09:46.845Z,18.77
2019-04-05T07:12:20.571Z,19.80
2019-04-05T07:14:50.597Z,18.05
2019-04-05T07:17:21.081Z,18.37
2019-04-05T07:19:51.465Z,17.98
2019-04-05T07:22:34.202Z,19.12
2019-04-05T07:24:54.092Z,19.23
2019-04-05T07:27:24.482Z,18.92
2019-04-05T07:29:54.921Z,19.55
2019-04-05T07:32:25.586Z,18.37
2019-04-05T07:34:56.003Z,19.52
2019-04-05T07:37:27.110Z,19.67
2019-04-05T07:39:57.690Z,18.65
2019-04-05T07:42:28.313Z,18.62
2019-04-05T07:44:58.829Z,17.57
2019-04-05T07:47:29.687Z,17.55
2019-04-05T07:50:00.141Z,18.90
2019-04-05T07:52:31.380Z,18.48
2019-04-05T07:55:01.788Z,18.27
2019-04-05T07:57:32.344Z,19.92
2019-04-05T08:00:12.483Z,19.55
2019-04-05T08:02:42.942Z,24.02
2019-04-05T08:05:13.662Z,22.80
2019-04-05T08:07:47.213Z,25.97
2019-04-05T08:10:17.933Z,28.90
2019-04-05T08:12:50.713Z,30.55
2019-04-05T08:15:21.141Z,32.30
2019-04-05T08:17:51.642Z,33.40
2019-04-05T08:20:25.098Z,35.10
2019-04-05T08:22:54.435Z,37.48
2019-04-05T08:25:24.910Z,36.08
2019-04-05T08:27:55.410Z,37.28
2019-04-05T08:30:25.863Z,37.90
2019-04-05T08:32:56.434Z,38.48
2019-04-05T08:35:26.892Z,36.08
2019-04-05T08:37:57.824Z,35.52
2019-04-05T08:40:28.427Z,38.63
2019-04-05T08:42:59.416Z,37.73
2019-04-05T08:45:30.973Z,38.23
2019-04-05T08:48:01.527Z,38.83
2019-04-05T08:50:32.102Z,36.93
2019-04-05T08:53:02.632Z,37.28
2019-04-05T08:55:33.172Z,40.88
2019-04-05T08:58:03.891Z,37.10
2019-04-05T09:00:34.403Z,38.63
2019-04-05T09:03:05.958Z,40.33
2019-04-05T09:05:36.363Z,40.33
2019-04-05T09:08:06.795Z,42.00
2019-04-05T09:10:37.303Z,43.23
2019-04-05T09:13:07.924Z,42.30
2019-04-05T09:15:38.626Z,41.65
2019-04-05T09:18:09.453Z,41.37
2019-04-05T09:20:39.988Z,42.80
2019-04-05T09:23:11.995Z,42.53
2019-04-05T09:25:42.914Z,42.08
2019-04-05T09:28:13.369Z,43.78
2019-04-05T09:30:44.447Z,42.75
2019-04-05T09:33:14.866Z,42.08
2019-04-05T09:35:45.497Z,42.53
2019-04-05T09:38:16.182Z,44.10
2019-04-05T09:40:46.834Z,44.75
2019-04-05T09:43:17.462Z,42.70
2019-04-05T09:45:47.990Z,44.73
2019-04-05T09:48:18.528Z,42.25
2019-04-05T09:50:49.722Z,44.03
2019-04-05T09:53:20.186Z,46.50
2019-04-05T09:55:50.705Z,47.60
2019-04-05T09:58:21.404Z,48.05
2019-04-05T10:00:54.307Z,50.65
2019-04-05T10:03:24.830Z,47.00
2019-04-05T10:05:55.390Z,44.45
2019-04-05T10:08:26.020Z,48.70
2019-04-05T10:11:00.068Z,47.93
2019-04-05T10:13:30.683Z,49.63
2019-04-05T10:16:02.190Z,50.33
2019-04-05T10:18:32.692Z,48.23
2019-04-05T10:21:03.159Z,47.85
2019-04-05T10:23:33.981Z,47.85
2019-04-05T10:26:04.887Z,51.85
2019-04-05T10:28:35.623Z,48.33
2019-04-05T10:31:07.163Z,52.13
2019-04-05T10:33:37.601Z,54.48
2019-04-05T10:36:08.094Z,53.15
2019-04-05T10:38:38.574Z,51.95
2019-04-05T10:41:09.275Z,53.58
2019-04-05T10:43:40.069Z,52.62
2019-04-05T10:46:10.675Z,55.85
2019-04-05T10:48:41.175Z,53.83
2019-04-05T10:51:11.794Z,50.70
2019-04-05T10:53:42.992Z,54.15
2019-04-05T10:56:13.508Z,55.50
2019-04-05T10:58:44.613Z,53.40
2019-04-05T11:01:15.236Z,53.08
2019-04-05T11:03:45.821Z,54.20
2019-04-05T11:06:16.355Z,51.10
2019-04-05T11:08:46.864Z,53.08
2019-04-05T11:11:17.379Z,48.83
2019-04-05T11:13:47.935Z,49.88
2019-04-05T11:16:19.382Z,48.58
2019-04-05T11:18:49.947Z,49.03
2019-04-05T11:21:20.861Z,49.45
2019-04-05T11:23:53.592Z,45.38
2019-04-05T11:26:23.954Z,44.35
2019-04-05T11:28:54.661Z,48.87
2019-04-05T11:31:25.422Z,49.45
2019-04-05T11:33:56.542Z,45.58
2019-04-05T11:36:27.108Z,48.05
2019-04-05T11:38:57.787Z,47.93
2019-04-05T11:41:30.495Z,46.23
2019-04-05T11:44:02.493Z,47.15
2019-04-05T11:46:38.977Z,46.77
2019-04-05T11:49:09.800Z,46.63
2019-04-05T11:51:43.017Z,48.55
2019-04-05T11:54:13.812Z,47.73
2019-04-05T11:56:44.896Z,47.58
2019-04-05T11:59:16.243Z,47.62
2019-04-05T12:01:51.898Z,47.78
2019-04-05T12:04:22.421Z,45.33
2019-04-05T12:06:54.436Z,46.33
2019-04-05T12:09:26.109Z,46.18
2019-04-05T12:11:56.873Z,46.58
2019-04-05T12:14:30.414Z,45.83
2019-04-05T12:16:59.576Z,46.92
2019-04-05T12:19:30.346Z,44.60
2019-04-05T12:22:05.377Z,43.80
2019-04-05T12:24:34.918Z,44.15
2019-04-05T12:27:05.591Z,45.45
2019-04-05T12:29:36.246Z,45.08
2019-04-05T12:32:06.642Z,44.98
2019-04-05T12:34:37.213Z,43.42
2019-04-05T12:37:08.734Z,42.88
2019-04-05T12:39:39.266Z,43.48
2019-04-05T12:42:11.957Z,45.05
2019-04-05T12:44:44.985Z,42.70
2019-04-05T12:47:15.867Z,44.45
2019-04-05T12:49:46.814Z,41.55
2019-04-05T12:52:22.963Z,39.85
2019-04-05T12:54:54.049Z,41.18
2019-04-05T12:57:21.755Z,39.85
2019-04-05T12:59:55.761Z,38.08
2019-04-05T13:02:33.434Z,37.53
2019-04-05T13:04:56.941Z,39.38
2019-04-05T13:07:27.489Z,38.33
2019-04-05T13:09:58.032Z,37.42
2019-04-05T13:12:28.545Z,37.95
2019-04-05T13:15:11.283Z,36.70
2019-04-05T13:17:31.715Z,37.15
2019-04-05T13:20:02.539Z,36.77
2019-04-05T13:22:36.190Z,36.93
2019-04-05T13:25:10.760Z,38.28
2019-04-05T13:27:41.346Z,37.78
2019-04-05T13:30:11.626Z,35.43
2019-04-05T13:32:42.067Z,35.58
2019-04-05T13:35:12.851Z,35.83
2019-04-05T13:37:43.257Z,35.95
2019-04-05T13:40:13.928Z,36.77
2019-04-05T13:42:44.346Z,36.50
2019-04-05T13:45:15.448Z,36.30
2019-04-05T13:47:45.882Z,36.85
2019-04-05T13:50:21.804Z,37.17
2019-04-05T13:52:52.440Z,37.25
2019-04-05T13:55:23.179Z,37.15
2019-04-05T13:57:53.727Z,38.20
2019-04-05T14:00:24.480Z,38.25
2019-04-05T14:02:55.495Z,37.50
2019-04-05T14:05:31.523Z,40.98
2019-04-05T14:08:10.176Z,37.85
2019-04-05T14:11:06.285Z,37.63
2019-04-05T14:13:43.048Z,38.25
2019-04-05T14:16:17.970Z,36.95
2019-04-05T14:18:49.801Z,36.53
2019-04-05T14:21:22.316Z,35.33
2019-04-05T14:23:53.272Z,37.40
2019-04-05T14:26:24.460Z,36.83
2019-04-05T14:28:55.731Z,37.63
2019-04-05T14:31:26.751Z,35.73
2019-04-05T14:33:58.289Z,36.08
2019-04-05T14:36:28.737Z,38.05
2019-04-05T14:38:59.171Z,37.50
2019-04-05T14:41:30.890Z,35.35
2019-04-05T14:44:01.355Z,35.05
2019-04-05T14:46:33.699Z,35.60
2019-04-05T14:49:11.419Z,35.03
2019-04-05T14:51:52.578Z,36.33
2019-04-05T14:54:14.303Z,35.30
2019-04-05T14:56:45.150Z,36.03
2019-04-05T14:59:16.255Z,35.75
2019-04-05T15:01:47.080Z,35.95
2019-04-05T15:04:18.408Z,36.10
2019-04-05T15:06:50.645Z,35.95
2019-04-05T15:09:23.670Z,37.60
2019-04-05T15:11:53.344Z,36.10
2019-04-05T15:14:23.893Z,37.05
2019-04-05T15:16:59.696Z,35.75
2019-04-05T15:19:30.706Z,35.15
2019-04-05T15:22:06.083Z,37.15
2019-04-05T15:24:34.141Z,35.48
2019-04-05T15:27:09.398Z,35.92
2019-04-05T15:29:39.912Z,34.53
2019-04-05T15:32:10.304Z,36.42
2019-04-05T15:34:41.135Z,35.75
2019-04-05T15:37:11.833Z,34.90
2019-04-05T15:39:44.476Z,36.53
2019-04-05T15:42:15.485Z,35.95
2019-04-05T15:44:46.731Z,34.98
2019-04-05T15:47:17.243Z,34.83
2019-04-05T15:49:51.528Z,35.15
2019-04-05T15:52:21.044Z,34.70
2019-04-05T15:54:51.480Z,34.63
2019-04-05T15:57:21.980Z,35.00
2019-04-05T15:59:52.466Z,35.10
2019-04-05T16:02:23.264Z,35.43
2019-04-05T16:04:53.866Z,34.50
2019-04-05T16:07:24.319Z,35.90
2019-04-05T16:09:55.530Z,35.78
2019-04-05T16:12:25.970Z,35.78
2019-04-05T16:15:00.338Z,36.53
2019-04-05T16:17:30.811Z,36.05
2019-04-05T16:20:12.403Z,36.60
2019-04-05T16:22:42.894Z,36.23
2019-04-05T16:25:14.004Z,38.30
2019-04-05T16:27:47.150Z,39.00
2019-04-05T16:30:18.255Z,37.63
2019-04-05T16:32:54.862Z,39.03
2019-04-05T16:35:27.989Z,36.60
2019-04-05T16:38:08.511Z,37.25
2019-04-05T16:40:39.140Z,37.85
2019-04-05T16:43:09.750Z,40.05
2019-04-05T16:45:41.848Z,36.95
2019-04-05T16:48:12.545Z,36.48
2019-04-05T16:50:43.088Z,37.58
2019-04-05T16:53:14.327Z,36.70
2019-04-05T16:55:45.078Z,36.23
2019-04-05T16:58:15.969Z,36.40
2019-04-05T17:00:46.582Z,36.05
2019-04-05T17:03:17.275Z,36.58
2019-04-05T17:05:48.111Z,36.73
2019-04-05T17:08:18.894Z,39.88
2019-04-05T17:10:49.447Z,36.53
2019-04-05T17:13:20.046Z,36.75
2019-04-05T17:15:51.203Z,37.60
2019-04-05T17:18:21.713Z,37.90
2019-04-05T17:20:52.143Z,37.98
2019-04-05T17:23:22.699Z,38.33
2019-04-05T17:25:53.278Z,40.23
2019-04-05T17:28:24.670Z,38.55
2019-04-05T17:30:56.517Z,38.17
2019-04-05T17:33:28.123Z,35.83
2019-04-05T17:35:58.770Z,37.67
2019-04-05T17:38:29.395Z,37.33
2019-04-05T17:41:04.483Z,35.33
2019-04-05T17:43:34.894Z,35.00
2019-04-05T17:46:05.318Z,38.35
2019-04-05T17:48:36.097Z,34.05
2019-04-05T17:51:06.725Z,33.58
2019-04-05T17:53:37.322Z,35.50
2019-04-05T17:56:08.055Z,36.28
2019-04-05T17:58:39.373Z,35.68
2019-04-05T18:01:10.071Z,34.98
2019-04-05T18:03:40.786Z,35.65
2019-04-05T18:06:11.345Z,34.45
2019-04-05T18:08:42.129Z,33.10
2019-04-05T18:11:14.096Z,35.95
2019-04-05T18:13:52.235Z,36.50
2019-04-05T18:16:24.974Z,35.80
2019-04-05T18:23:25.026Z,35.00
2019-04-05T18:26:00.129Z,37.17
2019-04-05T18:28:31.010Z,35.52
2019-04-05T18:31:01.970Z,35.60
2019-04-05T18:33:40.648Z,36.50
2019-04-05T18:36:12.724Z,36.35
2019-04-05T18:38:43.340Z,36.08
2019-04-05T18:41:14.401Z,37.03
2019-04-05T18:43:45.030Z,36.43
2019-04-05T18:46:16.572Z,34.70
2019-04-05T18:48:47.315Z,35.33
2019-04-05T18:51:17.838Z,36.75
2019-04-05T18:53:50.207Z,36.80
2019-04-05T18:56:20.909Z,37.15
2019-04-05T18:58:57.631Z,38.78
2019-04-05T19:01:40.153Z,37.88
2019-04-05T19:04:13.867Z,39.13
2019-04-05T19:06:44.396Z,38.23
2019-04-05T19:09:15.135Z,37.50
2019-04-05T19:11:45.763Z,37.03
2019-04-05T19:14:16.199Z,35.70
2019-04-05T19:16:55.251Z,35.58
2019-04-05T19:19:25.709Z,35.95
2019-04-05T19:21:56.462Z,42.20
2019-04-05T19:24:27.171Z,40.77
2019-04-05T19:26:57.746Z,39.03
2019-04-05T19:29:28.601Z,39.13
2019-04-05T19:49:50.995Z,35.92
2019-04-05T19:52:21.702Z,35.75
2019-04-05T19:54:52.395Z,35.03
2019-04-05T19:57:23.518Z,34.67
2019-04-05T19:59:56.329Z,35.92
2019-04-05T20:02:28.451Z,35.68
2019-04-05T20:05:11.228Z,35.58
2019-04-05T20:07:45.453Z,34.98
2019-04-05T20:10:18.844Z,35.17
2019-04-05T20:12:49.450Z,36.17
2019-04-05T20:15:20.148Z,35.50
2019-04-05T20:17:51.129Z,34.90
2019-04-05T20:20:21.921Z,35.23
2019-04-05T20:22:52.658Z,34.63
2019-04-05T20:25:23.365Z,36.50
2019-04-05T20:27:55.035Z,36.33
2019-04-05T20:30:26.019Z,36.03
2019-04-05T20:32:57.038Z,36.67
2019-04-05T20:35:27.965Z,36.17
2019-04-05T20:37:59.109Z,34.87
2019-04-05T20:40:38.918Z,33.83
2019-04-05T20:43:12.211Z,34.47
2019-04-05T20:45:44.990Z,36.67
2019-04-05T20:48:15.583Z,33.73
2019-04-05T20:50:46.097Z,35.37
2019-04-05T20:53:17.285Z,34.80
2019-04-05T20:55:48.295Z,34.67
2019-04-05T20:58:18.882Z,35.95
2019-04-05T21:00:49.637Z,33.97
2019-04-05T21:03:20.262Z,34.90
2019-04-05T21:05:51.112Z,34.17
2019-04-05T21:08:21.672Z,34.13
2019-04-05T21:10:52.540Z,35.57
2019-04-05T21:13:23.072Z,34.33
2019-04-05T21:15:53.594Z,34.15
2019-04-05T21:18:24.115Z,35.00
2019-04-05T21:20:54.708Z,34.83
2019-04-05T21:23:25.298Z,34.20
2019-04-05T21:25:55.862Z,34.77
2019-04-05T21:28:26.321Z,34.50
2019-04-05T21:30:56.764Z,35.13
2019-04-05T21:33:27.303Z,34.50
2019-04-05T21:35:58.005Z,35.73
2019-04-05T21:38:28.491Z,34.77
2019-04-05T21:41:01.723Z,35.97
2019-04-05T21:43:32.222Z,35.78
2019-04-05T21:46:02.798Z,35.40
2019-04-05T21:48:33.265Z,35.90
2019-04-05T21:51:03.859Z,36.30
2019-04-05T21:53:34.735Z,37.40
2019-04-05T21:56:05.464Z,37.63
2019-04-05T21:58:35.896Z,37.53
2019-04-05T22:01:10.226Z,38.87
2019-04-05T22:03:42.590Z,38.47
2019-04-05T22:06:13.084Z,36.90
2019-04-05T22:08:44.638Z,37.70
2019-04-05T22:11:15.219Z,36.40
2019-04-05T22:13:45.724Z,36.73
2019-04-05T22:16:16.149Z,36.67
2019-04-05T22:18:46.569Z,37.23
2019-04-05T22:21:17.291Z,39.83
2019-04-05T22:23:47.701Z,36.90
2019-04-05T22:26:19.080Z,36.28
2019-04-05T22:28:49.659Z,37.30
2019-04-05T22:31:20.105Z,38.77
2019-04-05T22:33:50.831Z,40.03
2019-04-05T22:36:21.316Z,40.63
2019-04-05T22:38:51.742Z,38.80
2019-04-05T22:41:22.667Z,40.07
2019-04-05T22:43:53.125Z,43.97
2019-04-05T22:46:23.655Z,41.13
2019-04-05T22:48:54.101Z,40.90
2019-04-05T22:51:24.640Z,41.57
2019-04-05T22:53:55.144Z,40.90
2019-04-05T22:56:25.593Z,41.07
2019-04-05T22:58:56.379Z,40.47
2019-04-05T23:01:26.913Z,41.25
2019-04-05T23:03:57.546Z,39.70
2019-04-05T23:06:28.064Z,39.43
2019-04-05T23:08:58.598Z,38.30
2019-04-05T23:11:29.008Z,38.73
2019-04-05T23:13:59.430Z,38.97
2019-04-05T23:16:29.975Z,38.67
2019-04-05T23:19:00.443Z,40.10
2019-04-05T23:21:31.093Z,39.03
2019-04-05T23:24:01.502Z,38.67
2019-04-05T23:26:31.974Z,39.83
2019-04-05T23:29:02.439Z,39.37
2019-04-05T23:31:32.995Z,39.93
2019-04-05T23:34:03.720Z,37.60
2019-04-05T23:36:34.294Z,37.10
2019-04-05T23:39:05.889Z,38.60
2019-04-05T23:41:36.436Z,37.73
2019-04-05T23:44:06.983Z,38.37
2019-04-05T23:46:37.612Z,37.40
2019-04-05T23:49:08.121Z,37.97
2019-04-05T23:51:38.946Z,36.47
2019-04-05T23:54:09.668Z,35.40
2019-04-05T23:56:40.176Z,36.77
2019-04-05T23:59:10.625Z,36.93
